Menlo Park, CA

9:42 AM PDT on October 02, 2014 (GMT -0700)
Allied Arts | Change Station
CLOSE
Current Station
Personal Weather Station
Location: Menlo Park, CA
Elevation: 70 ft
Nearby Weather Stations
Active Advisory: Heat Advisory

Elev 70 ft 37.44 °N, 122.18 °W | Updated 4 seconds ago

Clear
Clear
70.7 °F
Feels Like 77 °F
N
1.0
Wind Variable Wind from NNW
Gusts 1.0 mph

Today
High -- | Low -- °F
--% Chance of Precip.
Yesterday
High -- | Low -- °F
Precip. -- in
7:05 AM 6:50 PM
First Quarter, 60% visible
Pressure 30.02 in
Visibility 30.0 miles
Clouds Clear
Heat Index 77 °F
Dew Point 48 °F
Humidity 44%
Rainfall 0.00 in
Snow Depth 1 in , 1 in , 0 in
UV 1.4 out of 12
Pollen 3.90 out of 12
Ozone Good
PM2.5 Good
Flu Activity Not available.
METAR KPAO 021547Z 00000KT 30SM SKC 19/09 A3002

More Conditions Fewer Conditions

Pressure 30.02 in
Visibility 30.0 miles
Clouds Clear
Heat Index 77 °F
Dew Point 48 °F
Humidity 44%
Rainfall 0.00 in
Snow Depth 1 in , 1 in , 0 in
UV 1.4 out of 12
Pollen 3.90 out of 12
Ozone Good
PM2.5 Good
Flu Activity Not available.
METAR KPAO 021547Z 00000KT 30SM SKC 19/09 A3002

More Conditions Fewer Conditions

10-Day Weather Forecast

Almanac

Astronomy

Oct. 02, 2014 Rise Set
Actual Time 7:05 AM PDT 6:50 PM PDT
Civil Twilight 6:39 AM PDT 7:16 PM PDT
Nautical Twilight 6:08 AM PDT 7:46 PM PDT
Astronomical Twilight 5:38 AM PDT 8:16 PM PDT
Moon 2:54 PM PDT 12:34 AM PDT
Length of Visible Light 12h 37m
Length of Day
11h 45m
Tomorrow will be 2m 23s shorter.
First Quarter, 60% of the Moon is Illuminated
Today
First Quarter
Oct 8
Full
Oct 15
Last Quarter
Oct 23
New
Oct 30
First Quarter

Today's Extremes

State Highs State Lows

Community

WunderPhotos

Upload Photos

1,758,294 photos uploaded!

WunderBlogs® & News

Nearby

Air Quality

  Air Quality AQ Index Pollutant
Yesterday Good
OZONE
Yesterday Good
PM2.5
Current Good
PM2.5
Current Good
OZONE
Thursday Moderate
OZONE
Friday Moderate
NO2
Saturday Moderate
PM2.5
Sunday Moderate
PM2.5
Monday Moderate
PM2.5

Snow Depth

Station Depth Elevation
Horse Meadow 1 in 8631 ft
Forestdale Creek 1 in 8029 ft
Burnside Lake 0 in 8139 ft
Heavenly Valley 0 in 8850 ft
Independence Lake 0 in 8450 ft

Earthquake Activity

City Distance Mag. Time & Date
South Dos Palos, California 93 miles 3.0 11:17 AM PDT
2014-10-01
Shandon, California 153 miles 2.9 5:34 PM PDT
2014-09-30
East Foothills, California 22 miles 2.6 3:34 PM PDT
2014-09-30
South Dos Palos, California 93 miles 2.7 3:08 PM PDT
2014-09-30
Minimum magnitude displayed is 2.5.

Coastal Water Temperatures

Place Temperature
No Stations Reporting

Nearby Weather Stations